Currently 68°F in Pinon Hills, California, USA
68°F
74°F / 68°F
4 mph W
0.00"
Thursday, September 23, 2021 4:50 AM PDT

Pinon Hills, California Climate Summary
Typical August Day

Normal High:    92.0°F (33.3°C)
Normal Low:    66.4°F (19.1°C)
Average:    79.1°F (26.2°C)

Hour    Temperature    Wind Speed    Humidity
12:00 AM    72°F (22°C)    2 mph    32%
1:00 AM    71°F (22°C)    2 mph    32%
2:00 AM    70°F (21°C)    2 mph    32%
3:00 AM    70°F (21°C)    2 mph    33%
4:00 AM    69°F (21°C)    2 mph    33%
5:00 AM    69°F (20°C)    2 mph    33%
6:00 AM    68°F (20°C)    2 mph    33%
7:00 AM    71°F (22°C)    1 mph    32%
8:00 AM    77°F (25°C)    1 mph    26%
9:00 AM    81°F (27°C)    1 mph    23%
10:00 AM    83°F (28°C)    2 mph    20%
11:00 AM    85°F (30°C)    2 mph    18%
12:00 PM    88°F (31°C)    2 mph    16%
1:00 PM    89°F (32°C)    3 mph    15%
2:00 PM    90°F (32°C)    3 mph    15%
3:00 PM    90°F (32°C)    3 mph    15%
4:00 PM    90°F (32°C)    3 mph    15%
5:00 PM    89°F (32°C)    4 mph    16%
6:00 PM    87°F (31°C)    5 mph    18%
7:00 PM    84°F (29°C)    5 mph    21%
8:00 PM    80°F (27°C)    3 mph    25%
9:00 PM    77°F (25°C)    3 mph    27%
10:00 PM    75°F (24°C)    2 mph    30%
11:00 PM    73°F (23°C)    2 mph    31%
 

The Pinon Hills, California weather pages are a service of WeatherCurrents.
Copyright ©2021  WeatherCurrents. All rights reserved. - Submit questions and comments - Privacy Policy